createdAt,value
2022-11-29T00:01:16.122Z,35.40
2022-11-29T00:03:43.056Z,36.42
2022-11-29T00:06:12.904Z,37.75
2022-11-29T00:08:42.035Z,41.97
2022-11-29T00:11:09.951Z,41.60
2022-11-29T00:13:36.665Z,37.67
2022-11-29T00:16:04.289Z,40.83
2022-11-29T00:18:30.904Z,35.28
2022-11-29T00:20:57.420Z,38.83
2022-11-29T00:23:24.114Z,38.70
2022-11-29T00:25:50.668Z,36.92
2022-11-29T00:28:17.249Z,41.25
2022-11-29T00:30:43.958Z,38.08
2022-11-29T00:33:11.756Z,38.38
2022-11-29T00:35:41.342Z,38.42
2022-11-29T00:38:07.946Z,40.20
2022-11-29T00:40:34.536Z,44.03
2022-11-29T00:43:01.129Z,40.25
2022-11-29T00:45:27.808Z,37.70
2022-11-29T00:47:55.117Z,39.17
2022-11-29T00:50:21.667Z,41.42
2022-11-29T00:52:48.313Z,44.13
2022-11-29T00:55:15.038Z,40.78
2022-11-29T00:57:41.677Z,39.80
2022-11-29T01:00:08.462Z,38.13
2022-11-29T01:02:35.012Z,48.90
2022-11-29T01:05:01.638Z,43.08
2022-11-29T01:07:28.168Z,40.58
2022-11-29T01:09:54.743Z,42.25
2022-11-29T01:12:21.237Z,43.60
2022-11-29T01:14:47.702Z,46.00
2022-11-29T01:17:14.224Z,49.05
2022-11-29T01:19:40.719Z,55.92
2022-11-29T01:22:07.230Z,48.45
2022-11-29T01:24:33.752Z,51.40
2022-11-29T01:27:00.468Z,43.50
2022-11-29T01:29:30.532Z,43.85
2022-11-29T01:31:57.103Z,39.85
2022-11-29T01:34:23.961Z,40.53
2022-11-29T01:36:53.702Z,38.33
2022-11-29T01:39:20.235Z,40.28
2022-11-29T01:41:49.693Z,44.20
2022-11-29T01:44:17.398Z,51.13
2022-11-29T01:46:47.921Z,42.08
2022-11-29T01:49:19.641Z,48.17
2022-11-29T01:51:48.821Z,55.03
2022-11-29T01:54:16.539Z,39.60
2022-11-29T01:56:44.608Z,48.05
2022-11-29T01:59:13.610Z,44.03
2022-11-29T02:01:40.336Z,48.35
2022-11-29T02:04:07.321Z,52.15
2022-11-29T02:06:34.279Z,43.33
2022-11-29T02:09:01.013Z,49.65
2022-11-29T02:11:36.721Z,48.55
2022-11-29T02:14:05.960Z,44.50
2022-11-29T02:16:37.180Z,50.28
2022-11-29T02:19:10.655Z,49.10
2022-11-29T02:21:49.519Z,50.50
2022-11-29T02:24:19.025Z,47.97
2022-11-29T02:26:57.529Z,46.90
2022-11-29T02:29:34.402Z,47.70
2022-11-29T02:32:00.905Z,48.75
2022-11-29T02:34:36.465Z,53.35
2022-11-29T02:37:18.277Z,44.95
2022-11-29T02:40:08.608Z,45.03
2022-11-29T02:42:56.776Z,44.60
2022-11-29T02:45:23.632Z,42.47
2022-11-29T02:47:55.981Z,47.25
2022-11-29T02:50:31.520Z,50.30
2022-11-29T02:53:16.917Z,44.20
2022-11-29T02:56:04.658Z,45.50
2022-11-29T02:58:46.131Z,44.05
2022-11-29T03:01:26.111Z,54.08
2022-11-29T03:03:55.677Z,49.47
2022-11-29T03:06:30.355Z,41.08
2022-11-29T03:09:04.636Z,44.33
2022-11-29T03:11:35.394Z,43.55
2022-11-29T03:14:23.737Z,43.22
2022-11-29T03:17:08.887Z,45.45
2022-11-29T03:19:41.061Z,38.53
2022-11-29T03:22:17.293Z,43.63
2022-11-29T03:24:50.152Z,44.72
2022-11-29T03:27:22.578Z,48.53
2022-11-29T03:29:53.089Z,46.60
2022-11-29T03:32:26.431Z,44.58
2022-11-29T03:35:08.295Z,48.53
2022-11-29T03:37:42.214Z,49.65
2022-11-29T03:40:19.490Z,48.67
2022-11-29T03:42:56.990Z,44.78
2022-11-29T03:45:42.482Z,44.20
2022-11-29T03:48:23.359Z,41.55
2022-11-29T03:51:00.224Z,45.70
2022-11-29T03:53:32.692Z,45.35
2022-11-29T03:56:01.112Z,39.10
2022-11-29T03:58:34.830Z,45.30
2022-11-29T04:01:29.616Z,45.95
2022-11-29T04:04:21.451Z,49.25
2022-11-29T04:06:48.225Z,44.50
2022-11-29T04:09:19.890Z,46.53
2022-11-29T04:12:08.776Z,45.33
2022-11-29T04:14:36.604Z,50.42
2022-11-29T04:17:25.206Z,51.47
2022-11-29T04:20:09.963Z,43.00
2022-11-29T04:22:55.321Z,49.50
2022-11-29T04:25:54.402Z,48.17
2022-11-29T04:28:21.020Z,51.47
2022-11-29T04:31:07.190Z,44.58
2022-11-29T04:33:52.668Z,45.05
2022-11-29T04:36:38.219Z,38.95
2022-11-29T04:39:07.535Z,42.58
2022-11-29T04:41:36.970Z,42.75
2022-11-29T04:44:22.107Z,50.47
2022-11-29T04:46:58.341Z,44.00
2022-11-29T04:49:25.280Z,42.85
2022-11-29T04:51:57.901Z,45.20
2022-11-29T04:54:27.570Z,37.75
2022-11-29T04:57:14.527Z,38.33
2022-11-29T04:59:53.560Z,34.10
2022-11-29T05:02:31.919Z,32.58
2022-11-29T05:05:33.785Z,34.75
2022-11-29T05:08:18.382Z,39.42
2022-11-29T05:10:44.975Z,37.67
2022-11-29T05:13:20.688Z,38.78
2022-11-29T05:16:06.213Z,36.53
2022-11-29T05:18:33.276Z,37.33
2022-11-29T05:21:02.640Z,41.75
2022-11-29T05:23:32.356Z,35.03
2022-11-29T05:26:09.532Z,36.28
2022-11-29T05:28:48.328Z,35.33
2022-11-29T05:31:24.240Z,37.55
2022-11-29T05:33:53.611Z,34.33
2022-11-29T05:36:23.823Z,39.50
2022-11-29T05:39:07.728Z,44.67
2022-11-29T05:41:34.246Z,32.63
2022-11-29T05:44:20.569Z,35.42
2022-11-29T05:47:16.821Z,41.10
2022-11-29T05:49:52.186Z,40.78
2022-11-29T05:52:34.232Z,38.22
2022-11-29T05:55:19.715Z,36.20
2022-11-29T05:57:46.280Z,43.42
2022-11-29T06:00:14.766Z,35.42
2022-11-29T06:02:44.123Z,35.00
2022-11-29T06:05:31.324Z,39.60
2022-11-29T06:08:11.320Z,41.10
2022-11-29T06:10:40.204Z,46.70
2022-11-29T06:13:25.718Z,48.85
2022-11-29T06:16:33.505Z,49.15
2022-11-29T06:19:20.109Z,49.30
2022-11-29T06:22:05.981Z,48.15
2022-11-29T06:24:50.681Z,52.72
2022-11-29T06:27:36.829Z,50.00
2022-11-29T06:30:21.189Z,57.28
2022-11-29T06:32:50.688Z,49.13
2022-11-29T06:35:23.207Z,55.10
2022-11-29T06:37:51.457Z,51.20
2022-11-29T06:40:18.116Z,51.60
2022-11-29T06:42:45.998Z,57.13
2022-11-29T06:45:13.994Z,59.50
2022-11-29T06:47:44.407Z,59.17
2022-11-29T06:50:32.601Z,56.72
2022-11-29T06:53:04.986Z,54.78
2022-11-29T06:55:43.586Z,59.95
2022-11-29T06:58:36.246Z,64.20
2022-11-29T07:01:03.050Z,51.20
2022-11-29T07:03:45.035Z,48.25
2022-11-29T07:06:18.788Z,55.60
2022-11-29T07:08:45.578Z,51.72
2022-11-29T07:11:17.468Z,57.83
2022-11-29T07:13:46.721Z,55.28
2022-11-29T07:16:25.941Z,54.00
2022-11-29T07:18:52.525Z,53.15
2022-11-29T07:21:31.269Z,55.63
2022-11-29T07:24:06.069Z,58.72
2022-11-29T07:26:41.563Z,49.38
2022-11-29T07:29:10.563Z,54.13
2022-11-29T07:31:46.243Z,54.47
2022-11-29T07:34:24.844Z,56.47
2022-11-29T07:37:29.191Z,52.35
2022-11-29T07:40:14.104Z,51.65
2022-11-29T07:42:59.379Z,56.22
2022-11-29T07:45:33.550Z,53.75
2022-11-29T07:48:00.268Z,55.42
2022-11-29T07:50:27.475Z,59.47
2022-11-29T07:52:54.367Z,61.33
2022-11-29T07:55:21.728Z,61.05
2022-11-29T07:57:51.157Z,55.60
2022-11-29T08:00:18.648Z,63.42
2022-11-29T08:02:46.474Z,61.05
2022-11-29T08:05:13.071Z,57.78
2022-11-29T08:07:40.896Z,56.80
2022-11-29T08:10:11.945Z,59.83
2022-11-29T08:12:42.274Z,63.88
2022-11-29T08:15:15.169Z,61.55
2022-11-29T08:17:41.768Z,66.80
2022-11-29T08:20:08.779Z,66.72
2022-11-29T08:22:35.821Z,64.93
2022-11-29T08:25:05.295Z,62.97
2022-11-29T08:27:32.287Z,61.30
2022-11-29T08:29:59.366Z,62.97
2022-11-29T08:32:28.819Z,60.55
2022-11-29T08:34:55.577Z,65.47
2022-11-29T08:37:24.877Z,66.25
2022-11-29T08:39:51.420Z,62.75
2022-11-29T08:42:18.089Z,64.47
2022-11-29T08:44:44.894Z,67.68
2022-11-29T08:47:30.401Z,61.45
2022-11-29T08:50:02.876Z,66.00
2022-11-29T08:52:51.468Z,64.38
2022-11-29T08:55:23.407Z,57.03
2022-11-29T08:57:53.431Z,62.15
2022-11-29T09:00:22.421Z,67.60
2022-11-29T09:02:49.217Z,61.92
2022-11-29T09:05:16.030Z,64.47
2022-11-29T09:07:43.158Z,65.72
2022-11-29T09:10:11.485Z,65.07
2022-11-29T09:12:38.854Z,64.72
2022-11-29T09:15:06.645Z,68.30
2022-11-29T09:17:33.260Z,69.88
2022-11-29T09:20:00.268Z,71.30
2022-11-29T09:22:29.872Z,76.82
2022-11-29T09:24:58.000Z,60.63
2022-11-29T09:27:24.909Z,58.58
2022-11-29T09:29:51.447Z,64.60
2022-11-29T09:32:18.001Z,64.25
2022-11-29T09:34:45.156Z,65.90
2022-11-29T09:37:11.991Z,64.60
2022-11-29T09:39:42.580Z,59.90
2022-11-29T09:42:31.651Z,63.72
2022-11-29T09:45:12.972Z,57.13
2022-11-29T09:47:58.526Z,59.03
2022-11-29T09:50:29.527Z,61.72
2022-11-29T09:53:02.781Z,65.28
2022-11-29T09:55:38.839Z,61.33
2022-11-29T09:58:06.669Z,62.08
2022-11-29T10:00:35.626Z,67.65
2022-11-29T10:03:10.631Z,66.35
2022-11-29T10:05:47.851Z,58.13
2022-11-29T10:08:17.192Z,67.30
2022-11-29T10:10:48.291Z,61.90
2022-11-29T10:13:21.330Z,63.42
2022-11-29T10:15:50.220Z,60.22
2022-11-29T10:18:25.715Z,50.22
2022-11-29T10:20:53.817Z,54.88
2022-11-29T10:23:39.297Z,56.00
2022-11-29T10:26:08.576Z,51.30
2022-11-29T10:28:36.189Z,57.15
2022-11-29T10:31:08.782Z,48.83
2022-11-29T10:33:37.100Z,54.40
2022-11-29T10:36:04.975Z,51.88
2022-11-29T10:38:32.059Z,52.80
2022-11-29T10:41:04.616Z,55.30
2022-11-29T10:43:31.375Z,55.60
2022-11-29T10:45:58.911Z,52.72
2022-11-29T10:48:27.709Z,54.92
2022-11-29T10:50:54.392Z,57.53
2022-11-29T10:53:41.137Z,50.08
2022-11-29T10:56:16.448Z,54.35
2022-11-29T10:59:12.158Z,54.58
2022-11-29T11:01:41.100Z,48.53
2022-11-29T11:04:10.979Z,47.85
2022-11-29T11:06:48.545Z,46.83
2022-11-29T11:09:33.725Z,43.63
2022-11-29T11:12:05.332Z,45.72
2022-11-29T11:14:33.239Z,46.50
2022-11-29T11:17:23.086Z,43.83
2022-11-29T11:20:01.140Z,46.35
2022-11-29T11:22:28.417Z,42.28
2022-11-29T11:25:00.675Z,45.15
2022-11-29T11:27:31.401Z,48.45
2022-11-29T11:29:58.216Z,49.20
2022-11-29T11:32:24.888Z,49.30
2022-11-29T11:34:56.000Z,48.55
2022-11-29T11:37:24.785Z,44.67
2022-11-29T11:39:52.798Z,44.70
2022-11-29T11:42:37.364Z,46.60
2022-11-29T11:45:17.641Z,41.42
2022-11-29T11:47:44.221Z,46.83
2022-11-29T11:50:14.019Z,43.22
2022-11-29T11:52:50.384Z,45.72
2022-11-29T11:55:38.945Z,44.08
2022-11-29T11:58:10.159Z,44.95
2022-11-29T12:03:29.934Z,38.60
2022-11-29T12:06:15.533Z,44.30
2022-11-29T12:08:45.052Z,39.63
2022-11-29T12:11:13.630Z,39.80
2022-11-29T12:13:42.701Z,37.78
2022-11-29T12:16:13.792Z,38.45
2022-11-29T12:18:47.715Z,36.80
2022-11-29T12:21:16.621Z,36.85
2022-11-29T12:23:46.729Z,34.28
2022-11-29T12:26:55.227Z,36.42
2022-11-29T12:29:13.126Z,45.20
2022-11-29T12:32:04.840Z,36.50
2022-11-29T12:34:48.560Z,36.15
2022-11-29T12:37:15.397Z,38.78
2022-11-29T12:39:42.500Z,37.65
2022-11-29T12:42:16.715Z,41.58
2022-11-29T12:44:51.491Z,35.42
2022-11-29T12:47:39.429Z,38.58
2022-11-29T12:50:26.279Z,39.13
2022-11-29T12:53:01.694Z,39.15
2022-11-29T12:55:33.607Z,32.22
2022-11-29T12:58:30.831Z,41.13
2022-11-29T13:01:03.825Z,44.22
2022-11-29T13:03:38.820Z,40.33
2022-11-29T13:06:05.406Z,41.15
2022-11-29T13:08:41.104Z,42.05
2022-11-29T13:11:26.386Z,39.05
2022-11-29T13:14:13.709Z,40.42
2022-11-29T13:19:14.376Z,38.55
2022-11-29T13:21:43.820Z,38.22
2022-11-29T13:24:14.254Z,37.85
2022-11-29T13:26:42.073Z,41.53
2022-11-29T13:29:13.931Z,44.95
2022-11-29T13:31:40.773Z,40.13
2022-11-29T13:34:07.639Z,39.05
2022-11-29T13:36:34.137Z,43.15
2022-11-29T13:39:19.623Z,40.47
2022-11-29T13:41:51.687Z,38.28
2022-11-29T13:46:46.526Z,39.22
2022-11-29T13:49:23.494Z,42.22
2022-11-29T13:52:06.023Z,42.67
2022-11-29T13:54:36.118Z,41.65
2022-11-29T13:57:07.177Z,44.10
2022-11-29T13:59:47.093Z,40.72
2022-11-29T14:02:32.839Z,41.53
2022-11-29T14:04:59.500Z,36.78
2022-11-29T14:07:32.358Z,45.10
2022-11-29T14:09:58.958Z,43.25
2022-11-29T14:12:45.705Z,43.45
2022-11-29T14:15:18.187Z,43.53
2022-11-29T14:17:49.279Z,42.83
2022-11-29T14:20:31.116Z,43.30
2022-11-29T14:23:06.703Z,49.28
2022-11-29T14:25:52.557Z,47.33
2022-11-29T14:28:22.138Z,41.17
2022-11-29T14:30:53.609Z,43.08
2022-11-29T14:33:38.752Z,48.67
2022-11-29T14:36:23.902Z,44.97
2022-11-29T14:39:23.264Z,44.20
2022-11-29T14:42:14.540Z,42.55
2022-11-29T14:44:45.872Z,40.28
2022-11-29T14:47:15.267Z,39.75
2022-11-29T14:49:43.152Z,40.80
2022-11-29T14:52:16.671Z,39.65
2022-11-29T14:54:54.786Z,41.30
2022-11-29T14:57:42.781Z,35.80
2022-11-29T15:00:12.768Z,41.33
2022-11-29T15:02:47.270Z,37.88
2022-11-29T15:05:20.156Z,42.28
2022-11-29T15:08:02.048Z,41.00
2022-11-29T15:10:34.118Z,42.42
2022-11-29T15:15:35.583Z,45.72
2022-11-29T15:18:20.858Z,44.22
2022-11-29T15:21:05.892Z,39.95
2022-11-29T15:23:42.730Z,37.95
2022-11-29T15:26:17.361Z,40.65
2022-11-29T15:28:47.499Z,42.13
2022-11-29T15:31:19.282Z,40.00
2022-11-29T15:33:47.064Z,41.13
2022-11-29T15:36:18.658Z,32.80
2022-11-29T15:38:56.528Z,40.38
2022-11-29T15:41:25.910Z,39.28
2022-11-29T15:43:59.692Z,42.95
2022-11-29T15:46:27.444Z,41.15
2022-11-29T15:48:54.560Z,43.20
2022-11-29T15:51:21.224Z,42.25
2022-11-29T15:53:50.365Z,35.90
2022-11-29T15:56:29.130Z,39.95
2022-11-29T15:58:58.630Z,39.25
2022-11-29T16:01:25.293Z,44.33
2022-11-29T16:03:54.199Z,41.17
2022-11-29T16:06:20.692Z,42.03
2022-11-29T16:08:47.923Z,47.00
2022-11-29T16:11:19.324Z,44.58
2022-11-29T16:14:21.280Z,45.00
2022-11-29T16:16:49.294Z,42.97
2022-11-29T16:19:35.359Z,45.08
2022-11-29T16:22:11.786Z,42.38
2022-11-29T16:24:39.777Z,43.00
2022-11-29T16:27:10.892Z,45.10
2022-11-29T16:29:38.434Z,45.10
2022-11-29T16:32:18.252Z,46.45
2022-11-29T16:34:47.143Z,44.35
2022-11-29T16:37:18.691Z,42.47
2022-11-29T16:39:49.883Z,40.08
2022-11-29T16:42:23.594Z,48.17
2022-11-29T16:44:55.001Z,41.88
2022-11-29T16:47:28.856Z,40.38
2022-11-29T16:50:04.299Z,40.83
2022-11-29T16:52:36.591Z,43.55
2022-11-29T16:55:06.176Z,44.17
2022-11-29T16:57:39.921Z,48.20
2022-11-29T17:00:11.402Z,44.30
2022-11-29T17:02:37.964Z,43.67
2022-11-29T17:05:04.593Z,44.47
2022-11-29T17:07:33.967Z,37.50
2022-11-29T17:10:00.612Z,43.38
2022-11-29T17:12:27.097Z,44.63
2022-11-29T17:14:53.585Z,39.92
2022-11-29T17:17:20.120Z,43.22
2022-11-29T17:19:46.615Z,44.40
2022-11-29T17:22:13.063Z,45.65
2022-11-29T17:24:44.943Z,52.88
2022-11-29T17:27:14.622Z,45.92
2022-11-29T17:29:41.665Z,44.33
2022-11-29T17:32:08.457Z,44.78
2022-11-29T17:34:35.370Z,46.53
2022-11-29T17:37:04.019Z,48.53
2022-11-29T17:39:35.649Z,47.72
2022-11-29T17:42:02.217Z,41.72
2022-11-29T17:44:28.902Z,48.33
2022-11-29T17:46:55.467Z,46.78
2022-11-29T17:49:22.044Z,47.83
2022-11-29T17:51:53.297Z,48.88
2022-11-29T17:54:21.128Z,43.88
2022-11-29T17:56:47.835Z,49.10
2022-11-29T17:59:16.875Z,42.78
2022-11-29T18:01:43.724Z,40.03
2022-11-29T18:04:10.390Z,47.80
2022-11-29T18:06:37.900Z,49.70
2022-11-29T18:09:05.622Z,48.75
2022-11-29T18:11:45.237Z,48.60
2022-11-29T18:14:16.869Z,42.15
2022-11-29T18:16:47.153Z,50.78
2022-11-29T18:19:16.366Z,50.10
2022-11-29T18:21:43.691Z,48.55
2022-11-29T18:24:13.857Z,45.17
2022-11-29T18:26:40.925Z,46.22
2022-11-29T18:29:07.698Z,47.10
2022-11-29T18:31:37.353Z,51.72
2022-11-29T18:34:09.991Z,51.50
2022-11-29T18:36:37.881Z,50.58
2022-11-29T18:39:08.972Z,48.60
2022-11-29T18:41:36.012Z,49.93
2022-11-29T18:44:04.287Z,48.75
2022-11-29T18:46:32.963Z,48.13
2022-11-29T18:49:03.791Z,50.33
2022-11-29T18:51:30.922Z,50.00
2022-11-29T18:53:58.061Z,42.55
2022-11-29T18:56:25.702Z,51.22
2022-11-29T18:58:59.845Z,39.72
2022-11-29T19:01:30.260Z,48.83
2022-11-29T19:03:57.963Z,47.60
2022-11-29T19:06:39.195Z,52.80
2022-11-29T19:09:07.111Z,53.00
2022-11-29T19:11:35.116Z,46.72
2022-11-29T19:14:04.037Z,51.70
2022-11-29T19:16:31.833Z,49.13
2022-11-29T19:18:59.266Z,53.65
2022-11-29T19:21:26.704Z,52.33
2022-11-29T19:23:54.177Z,52.95
2022-11-29T19:26:21.093Z,56.45
2022-11-29T19:28:47.792Z,49.72
2022-11-29T19:31:18.148Z,53.33
2022-11-29T19:33:46.268Z,49.63
2022-11-29T19:36:17.157Z,54.05
2022-11-29T19:38:47.581Z,52.22
2022-11-29T19:41:25.641Z,49.28
2022-11-29T19:43:54.798Z,49.60
2022-11-29T19:46:22.822Z,55.38
2022-11-29T19:48:55.118Z,55.45
2022-11-29T19:51:26.275Z,52.88
2022-11-29T19:53:55.900Z,58.78
2022-11-29T19:56:25.648Z,56.22
2022-11-29T19:58:55.435Z,50.80
2022-11-29T20:01:24.521Z,54.83
2022-11-29T20:03:54.964Z,54.42
2022-11-29T20:06:24.515Z,51.63
2022-11-29T20:08:51.166Z,49.17
2022-11-29T20:11:18.921Z,48.38
2022-11-29T20:13:46.482Z,46.63
2022-11-29T20:16:24.738Z,49.83
2022-11-29T20:18:51.829Z,50.85
2022-11-29T20:21:30.205Z,47.58
2022-11-29T20:24:02.338Z,50.10
2022-11-29T20:26:29.846Z,51.22
2022-11-29T20:28:59.240Z,50.58
2022-11-29T20:31:33.780Z,44.97
2022-11-29T20:34:03.066Z,48.78
2022-11-29T20:36:32.827Z,47.92
2022-11-29T20:39:18.223Z,47.60
2022-11-29T20:41:50.000Z,40.83
2022-11-29T20:44:23.009Z,52.80
2022-11-29T20:46:52.189Z,54.22
2022-11-29T20:49:19.228Z,50.33
2022-11-29T20:51:51.484Z,49.03
2022-11-29T20:54:22.557Z,51.92
2022-11-29T20:56:52.369Z,47.20
2022-11-29T20:59:18.959Z,49.40
2022-11-29T21:01:45.861Z,50.70
2022-11-29T21:04:12.470Z,48.45
2022-11-29T21:06:39.371Z,52.13
2022-11-29T21:09:08.551Z,47.08
2022-11-29T21:11:35.248Z,44.97
2022-11-29T21:14:04.606Z,51.67
2022-11-29T21:16:33.407Z,54.33
2022-11-29T21:19:03.281Z,50.13
2022-11-29T21:21:39.474Z,43.15
2022-11-29T21:24:25.084Z,42.90
2022-11-29T21:26:52.007Z,44.63
2022-11-29T21:29:20.122Z,49.22
2022-11-29T21:31:47.539Z,50.47
2022-11-29T21:34:14.406Z,46.08
2022-11-29T21:36:41.255Z,47.92
2022-11-29T21:39:11.090Z,47.47
2022-11-29T21:41:37.616Z,42.92
2022-11-29T21:44:07.276Z,44.67
2022-11-29T21:46:34.356Z,41.70
2022-11-29T21:49:01.250Z,47.47
2022-11-29T21:51:41.693Z,40.28
2022-11-29T21:54:08.203Z,51.90
2022-11-29T21:56:34.752Z,47.72
2022-11-29T21:59:01.458Z,48.00
2022-11-29T22:01:29.688Z,53.38
2022-11-29T22:03:58.345Z,46.92
2022-11-29T22:06:26.219Z,49.97
2022-11-29T22:08:52.849Z,47.15
2022-11-29T22:11:40.983Z,49.28
2022-11-29T22:14:18.570Z,47.67
2022-11-29T22:16:54.331Z,52.35
2022-11-29T22:19:28.483Z,46.35
2022-11-29T22:21:55.951Z,48.80
2022-11-29T22:24:24.127Z,53.67
2022-11-29T22:26:51.439Z,49.67
2022-11-29T22:29:18.283Z,47.83
2022-11-29T22:31:47.150Z,52.83
2022-11-29T22:34:13.767Z,51.97
2022-11-29T22:36:40.841Z,51.08
2022-11-29T22:39:08.622Z,53.95
2022-11-29T22:41:35.835Z,53.92
2022-11-29T22:44:02.956Z,55.72
2022-11-29T22:46:31.727Z,50.78
2022-11-29T22:49:04.650Z,51.72
2022-11-29T22:51:33.965Z,51.22
2022-11-29T22:54:04.919Z,48.83
2022-11-29T22:56:33.560Z,54.67
2022-11-29T22:59:00.198Z,53.97
2022-11-29T23:01:30.681Z,53.65
2022-11-29T23:04:01.481Z,60.38
2022-11-29T23:06:32.014Z,49.75
2022-11-29T23:08:59.451Z,45.30
2022-11-29T23:11:38.902Z,50.95
2022-11-29T23:14:05.578Z,50.67
2022-11-29T23:16:33.321Z,47.13
2022-11-29T23:19:00.430Z,50.45
2022-11-29T23:21:28.530Z,47.95
2022-11-29T23:24:02.368Z,49.78
2022-11-29T23:26:39.370Z,43.33
2022-11-29T23:29:10.637Z,49.53
2022-11-29T23:31:40.271Z,50.17
2022-11-29T23:34:06.982Z,48.80
2022-11-29T23:36:33.854Z,48.90
2022-11-29T23:39:03.332Z,53.25
2022-11-29T23:41:29.851Z,52.92
2022-11-29T23:43:59.853Z,51.88
2022-11-29T23:46:31.845Z,46.40
2022-11-29T23:51:27.868Z,48.45
2022-11-29T23:53:56.998Z,53.25
2022-11-29T23:56:27.948Z,56.35
2022-11-29T23:58:54.543Z,53.55
